sensor_id;sensor_type;location;lat;lon;timestamp;temperature;humidity
21568;DHT22;10944;42.590;12.630;2022-07-09T00:00:12;21.20;99.30
21568;DHT22;10944;42.590;12.630;2022-07-09T00:02:38;21.20;99.50
21568;DHT22;10944;42.590;12.630;2022-07-09T00:05:04;21.00;99.60
21568;DHT22;10944;42.590;12.630;2022-07-09T00:07:30;20.90;99.90
21568;DHT22;10944;42.590;12.630;2022-07-09T00:09:56;20.90;99.90
21568;DHT22;10944;42.590;12.630;2022-07-09T00:12:21;21.00;98.90
21568;DHT22;10944;42.590;12.630;2022-07-09T00:14:47;21.00;99.00
21568;DHT22;10944;42.590;12.630;2022-07-09T00:17:13;21.10;99.50
21568;DHT22;10944;42.590;12.630;2022-07-09T00:19:38;21.00;99.40
21568;DHT22;10944;42.590;12.630;2022-07-09T00:22:04;20.90;99.90
21568;DHT22;10944;42.590;12.630;2022-07-09T00:24:31;20.80;99.90
21568;DHT22;10944;42.590;12.630;2022-07-09T00:26:57;20.80;99.90
21568;DHT22;10944;42.590;12.630;2022-07-09T00:29:23;20.80;99.90
21568;DHT22;10944;42.590;12.630;2022-07-09T00:31:49;20.70;99.90
21568;DHT22;10944;42.590;12.630;2022-07-09T00:34:15;20.60;99.90
21568;DHT22;10944;42.590;12.630;2022-07-09T00:36:40;20.60;99.90
21568;DHT22;10944;42.590;12.630;2022-07-09T00:39:06;20.60;99.90
21568;DHT22;10944;42.590;12.630;2022-07-09T00:41:32;20.70;99.90
21568;DHT22;10944;42.590;12.630;2022-07-09T00:43:58;20.70;99.90
21568;DHT22;10944;42.590;12.630;2022-07-09T00:46:24;20.60;99.90
21568;DHT22;10944;42.590;12.630;2022-07-09T00:48:49;20.60;99.90
21568;DHT22;10944;42.590;12.630;2022-07-09T00:51:17;20.60;99.90
21568;DHT22;10944;42.590;12.630;2022-07-09T00:53:45;20.60;99.90
21568;DHT22;10944;42.590;12.630;2022-07-09T00:56:11;20.60;99.90
21568;DHT22;10944;42.590;12.630;2022-07-09T00:58:38;20.60;99.90
21568;DHT22;10944;42.590;12.630;2022-07-09T01:01:06;20.80;99.70
21568;DHT22;10944;42.590;12.630;2022-07-09T01:03:32;20.80;99.60
21568;DHT22;10944;42.590;12.630;2022-07-09T01:05:57;20.90;99.50
21568;DHT22;10944;42.590;12.630;2022-07-09T01:08:25;20.80;99.90
21568;DHT22;10944;42.590;12.630;2022-07-09T01:10:51;20.80;99.90
21568;DHT22;10944;42.590;12.630;2022-07-09T01:13:18;20.70;99.90
21568;DHT22;10944;42.590;12.630;2022-07-09T01:15:43;20.70;99.90
21568;DHT22;10944;42.590;12.630;2022-07-09T01:18:13;20.60;99.90
21568;DHT22;10944;42.590;12.630;2022-07-09T01:20:39;20.70;99.90
21568;DHT22;10944;42.590;12.630;2022-07-09T01:23:04;20.70;99.90
21568;DHT22;10944;42.590;12.630;2022-07-09T01:25:40;20.60;99.90
21568;DHT22;10944;42.590;12.630;2022-07-09T01:28:08;20.60;99.90
21568;DHT22;10944;42.590;12.630;2022-07-09T01:30:36;20.60;99.90
21568;DHT22;10944;42.590;12.630;2022-07-09T01:33:02;20.60;99.90
21568;DHT22;10944;42.590;12.630;2022-07-09T01:35:28;20.70;99.90
21568;DHT22;10944;42.590;12.630;2022-07-09T01:37:54;20.80;99.90
21568;DHT22;10944;42.590;12.630;2022-07-09T01:40:20;20.80;99.90
21568;DHT22;10944;42.590;12.630;2022-07-09T01:42:47;20.80;99.90
21568;DHT22;10944;42.590;12.630;2022-07-09T01:45:14;20.70;99.90
21568;DHT22;10944;42.590;12.630;2022-07-09T01:47:40;20.60;99.90
21568;DHT22;10944;42.590;12.630;2022-07-09T01:50:06;20.60;99.90
21568;DHT22;10944;42.590;12.630;2022-07-09T01:52:33;20.50;99.90
21568;DHT22;10944;42.590;12.630;2022-07-09T01:54:59;20.50;99.90
21568;DHT22;10944;42.590;12.630;2022-07-09T01:57:25;20.50;99.90
21568;DHT22;10944;42.590;12.630;2022-07-09T01:59:52;20.40;99.90
21568;DHT22;10944;42.590;12.630;2022-07-09T02:02:18;20.40;99.90
21568;DHT22;10944;42.590;12.630;2022-07-09T02:04:45;20.40;99.90
21568;DHT22;10944;42.590;12.630;2022-07-09T02:07:14;20.30;99.90
21568;DHT22;10944;42.590;12.630;2022-07-09T02:09:40;20.20;99.90
21568;DHT22;10944;42.590;12.630;2022-07-09T02:12:06;20.20;99.90
21568;DHT22;10944;42.590;12.630;2022-07-09T02:14:32;20.20;99.90
21568;DHT22;10944;42.590;12.630;2022-07-09T02:16:58;20.30;99.90
21568;DHT22;10944;42.590;12.630;2022-07-09T02:19:24;20.30;99.90
21568;DHT22;10944;42.590;12.630;2022-07-09T02:21:50;20.20;99.90
21568;DHT22;10944;42.590;12.630;2022-07-09T02:24:15;19.90;99.90
21568;DHT22;10944;42.590;12.630;2022-07-09T02:26:41;19.80;99.90
21568;DHT22;10944;42.590;12.630;2022-07-09T02:29:07;19.70;99.90
21568;DHT22;10944;42.590;12.630;2022-07-09T02:31:33;19.60;99.90
21568;DHT22;10944;42.590;12.630;2022-07-09T02:33:59;19.60;99.90
21568;DHT22;10944;42.590;12.630;2022-07-09T02:36:25;19.70;99.90
21568;DHT22;10944;42.590;12.630;2022-07-09T02:38:50;19.90;99.90
21568;DHT22;10944;42.590;12.630;2022-07-09T02:41:16;20.10;99.90
21568;DHT22;10944;42.590;12.630;2022-07-09T02:43:42;20.20;99.90
21568;DHT22;10944;42.590;12.630;2022-07-09T02:46:12;20.20;99.90
21568;DHT22;10944;42.590;12.630;2022-07-09T02:48:38;20.20;99.90
21568;DHT22;10944;42.590;12.630;2022-07-09T02:51:04;20.10;99.90
21568;DHT22;10944;42.590;12.630;2022-07-09T02:53:30;20.10;99.90
21568;DHT22;10944;42.590;12.630;2022-07-09T02:55:56;20.10;99.90
21568;DHT22;10944;42.590;12.630;2022-07-09T02:58:21;20.10;99.90
21568;DHT22;10944;42.590;12.630;2022-07-09T03:00:47;20.00;99.90
21568;DHT22;10944;42.590;12.630;2022-07-09T03:03:13;20.00;99.90
21568;DHT22;10944;42.590;12.630;2022-07-09T03:05:39;20.00;99.90
21568;DHT22;10944;42.590;12.630;2022-07-09T03:08:05;20.00;99.90
21568;DHT22;10944;42.590;12.630;2022-07-09T03:10:31;20.00;99.90
21568;DHT22;10944;42.590;12.630;2022-07-09T03:12:56;20.10;99.90
21568;DHT22;10944;42.590;12.630;2022-07-09T03:15:22;20.00;99.90
21568;DHT22;10944;42.590;12.630;2022-07-09T03:17:48;20.00;99.90
21568;DHT22;10944;42.590;12.630;2022-07-09T03:20:15;19.90;99.90
21568;DHT22;10944;42.590;12.630;2022-07-09T03:22:41;20.00;99.90
21568;DHT22;10944;42.590;12.630;2022-07-09T03:25:07;20.00;99.90
21568;DHT22;10944;42.590;12.630;2022-07-09T03:27:34;20.00;99.90
21568;DHT22;10944;42.590;12.630;2022-07-09T03:30:00;20.10;99.90
21568;DHT22;10944;42.590;12.630;2022-07-09T03:32:26;20.00;99.90
21568;DHT22;10944;42.590;12.630;2022-07-09T03:34:52;20.00;99.90
21568;DHT22;10944;42.590;12.630;2022-07-09T03:37:19;20.00;99.90
21568;DHT22;10944;42.590;12.630;2022-07-09T03:39:46;20.00;99.90
21568;DHT22;10944;42.590;12.630;2022-07-09T03:42:12;20.00;99.90
21568;DHT22;10944;42.590;12.630;2022-07-09T03:44:38;20.00;99.90
21568;DHT22;10944;42.590;12.630;2022-07-09T03:47:04;20.00;99.90
21568;DHT22;10944;42.590;12.630;2022-07-09T03:49:30;20.00;99.90
21568;DHT22;10944;42.590;12.630;2022-07-09T03:51:56;20.00;99.90
21568;DHT22;10944;42.590;12.630;2022-07-09T03:54:22;19.90;99.90
21568;DHT22;10944;42.590;12.630;2022-07-09T03:56:48;19.90;99.90
21568;DHT22;10944;42.590;12.630;2022-07-09T03:59:13;19.90;99.90
21568;DHT22;10944;42.590;12.630;2022-07-09T04:01:39;19.90;99.90
21568;DHT22;10944;42.590;12.630;2022-07-09T04:04:05;19.80;99.90
21568;DHT22;10944;42.590;12.630;2022-07-09T04:06:31;19.80;99.90
21568;DHT22;10944;42.590;12.630;2022-07-09T04:08:57;19.80;99.90
21568;DHT22;10944;42.590;12.630;2022-07-09T04:11:23;19.90;99.90
21568;DHT22;10944;42.590;12.630;2022-07-09T04:13:48;20.00;99.90
21568;DHT22;10944;42.590;12.630;2022-07-09T04:16:15;20.10;99.90
21568;DHT22;10944;42.590;12.630;2022-07-09T04:18:41;20.10;99.90
21568;DHT22;10944;42.590;12.630;2022-07-09T04:21:10;20.10;99.90
21568;DHT22;10944;42.590;12.630;2022-07-09T04:23:36;20.10;99.90
21568;DHT22;10944;42.590;12.630;2022-07-09T04:26:02;20.20;99.90
21568;DHT22;10944;42.590;12.630;2022-07-09T04:28:28;20.10;99.90
21568;DHT22;10944;42.590;12.630;2022-07-09T04:30:53;20.10;99.90
21568;DHT22;10944;42.590;12.630;2022-07-09T04:33:19;20.20;99.90
21568;DHT22;10944;42.590;12.630;2022-07-09T04:35:45;20.20;99.90
21568;DHT22;10944;42.590;12.630;2022-07-09T04:38:12;20.30;99.90
21568;DHT22;10944;42.590;12.630;2022-07-09T04:40:38;20.30;99.90
21568;DHT22;10944;42.590;12.630;2022-07-09T04:43:05;20.40;99.90
21568;DHT22;10944;42.590;12.630;2022-07-09T04:45:31;20.50;99.90
21568;DHT22;10944;42.590;12.630;2022-07-09T04:47:58;22.40;99.90
21568;DHT22;10944;42.590;12.630;2022-07-09T04:50:24;23.40;99.60
21568;DHT22;10944;42.590;12.630;2022-07-09T04:52:50;23.80;97.60
21568;DHT22;10944;42.590;12.630;2022-07-09T04:55:16;24.80;97.00
21568;DHT22;10944;42.590;12.630;2022-07-09T04:57:43;25.00;95.90
21568;DHT22;10944;42.590;12.630;2022-07-09T05:00:09;24.80;95.50
21568;DHT22;10944;42.590;12.630;2022-07-09T05:02:37;24.90;95.30
21568;DHT22;10944;42.590;12.630;2022-07-09T05:05:03;25.20;94.30
21568;DHT22;10944;42.590;12.630;2022-07-09T05:07:30;25.20;95.70
21568;DHT22;10944;42.590;12.630;2022-07-09T05:09:56;24.30;97.10
21568;DHT22;10944;42.590;12.630;2022-07-09T05:12:22;24.70;97.20
21568;DHT22;10944;42.590;12.630;2022-07-09T05:14:48;24.50;97.90
21568;DHT22;10944;42.590;12.630;2022-07-09T05:17:13;23.90;99.30
21568;DHT22;10944;42.590;12.630;2022-07-09T05:19:39;23.50;99.50
21568;DHT22;10944;42.590;12.630;2022-07-09T05:22:05;23.80;99.70
21568;DHT22;10944;42.590;12.630;2022-07-09T05:24:31;23.90;99.90
21568;DHT22;10944;42.590;12.630;2022-07-09T05:26:57;23.80;98.40
21568;DHT22;10944;42.590;12.630;2022-07-09T05:29:22;23.70;98.80
21568;DHT22;10944;42.590;12.630;2022-07-09T05:31:49;24.00;98.40
21568;DHT22;10944;42.590;12.630;2022-07-09T05:34:16;24.30;98.00
21568;DHT22;10944;42.590;12.630;2022-07-09T05:36:42;24.20;97.30
21568;DHT22;10944;42.590;12.630;2022-07-09T05:39:08;24.70;98.00
21568;DHT22;10944;42.590;12.630;2022-07-09T05:41:33;25.60;96.10
21568;DHT22;10944;42.590;12.630;2022-07-09T05:44:00;25.20;96.80
21568;DHT22;10944;42.590;12.630;2022-07-09T05:46:29;25.00;97.30
21568;DHT22;10944;42.590;12.630;2022-07-09T05:48:55;25.40;95.50
21568;DHT22;10944;42.590;12.630;2022-07-09T05:51:21;26.00;95.20
21568;DHT22;10944;42.590;12.630;2022-07-09T05:53:47;27.30;94.60
21568;DHT22;10944;42.590;12.630;2022-07-09T05:56:13;28.80;92.90
21568;DHT22;10944;42.590;12.630;2022-07-09T05:58:39;29.90;91.30
21568;DHT22;10944;42.590;12.630;2022-07-09T06:01:05;30.60;90.60
21568;DHT22;10944;42.590;12.630;2022-07-09T06:03:31;31.40;89.60
21568;DHT22;10944;42.590;12.630;2022-07-09T06:05:57;31.80;86.90
21568;DHT22;10944;42.590;12.630;2022-07-09T06:08:23;31.50;86.40
21568;DHT22;10944;42.590;12.630;2022-07-09T06:10:50;32.00;86.60
21568;DHT22;10944;42.590;12.630;2022-07-09T06:13:16;31.20;87.70
21568;DHT22;10944;42.590;12.630;2022-07-09T06:15:41;30.90;88.80
21568;DHT22;10944;42.590;12.630;2022-07-09T06:18:07;30.80;86.20
21568;DHT22;10944;42.590;12.630;2022-07-09T06:20:33;30.60;85.50
21568;DHT22;10944;42.590;12.630;2022-07-09T06:22:59;29.70;85.30
21568;DHT22;10944;42.590;12.630;2022-07-09T06:25:25;29.70;85.30
21568;DHT22;10944;42.590;12.630;2022-07-09T06:27:50;29.80;83.50
21568;DHT22;10944;42.590;12.630;2022-07-09T06:30:16;30.60;81.80
21568;DHT22;10944;42.590;12.630;2022-07-09T06:32:42;30.90;82.50
21568;DHT22;10944;42.590;12.630;2022-07-09T06:35:08;32.00;80.50
21568;DHT22;10944;42.590;12.630;2022-07-09T06:37:35;31.80;79.50
21568;DHT22;10944;42.590;12.630;2022-07-09T06:40:00;33.00;78.50
21568;DHT22;10944;42.590;12.630;2022-07-09T06:42:27;33.00;76.50
21568;DHT22;10944;42.590;12.630;2022-07-09T06:44:52;33.20;76.70
21568;DHT22;10944;42.590;12.630;2022-07-09T06:47:18;33.20;76.60
21568;DHT22;10944;42.590;12.630;2022-07-09T06:49:44;34.00;76.50
21568;DHT22;10944;42.590;12.630;2022-07-09T06:52:10;34.40;76.00
21568;DHT22;10944;42.590;12.630;2022-07-09T06:54:35;34.10;76.60
21568;DHT22;10944;42.590;12.630;2022-07-09T06:57:03;33.20;76.10
21568;DHT22;10944;42.590;12.630;2022-07-09T06:59:29;32.20;79.90
21568;DHT22;10944;42.590;12.630;2022-07-09T07:01:55;30.80;80.90
21568;DHT22;10944;42.590;12.630;2022-07-09T07:04:20;29.80;81.40
21568;DHT22;10944;42.590;12.630;2022-07-09T07:06:47;29.20;82.50
21568;DHT22;10944;42.590;12.630;2022-07-09T07:09:15;28.50;83.50
21568;DHT22;10944;42.590;12.630;2022-07-09T07:11:49;28.20;84.70
21568;DHT22;10944;42.590;12.630;2022-07-09T07:14:16;27.60;85.70
21568;DHT22;10944;42.590;12.630;2022-07-09T07:16:42;27.60;87.00
21568;DHT22;10944;42.590;12.630;2022-07-09T07:19:08;27.60;87.00
21568;DHT22;10944;42.590;12.630;2022-07-09T07:21:34;27.50;86.50
21568;DHT22;10944;42.590;12.630;2022-07-09T07:24:00;27.50;85.80
21568;DHT22;10944;42.590;12.630;2022-07-09T07:26:26;27.50;86.30
21568;DHT22;10944;42.590;12.630;2022-07-09T07:28:51;27.40;85.80
21568;DHT22;10944;42.590;12.630;2022-07-09T07:31:17;27.10;85.90
21568;DHT22;10944;42.590;12.630;2022-07-09T07:33:43;27.20;87.00
21568;DHT22;10944;42.590;12.630;2022-07-09T07:36:09;27.20;86.30
21568;DHT22;10944;42.590;12.630;2022-07-09T07:38:35;27.10;86.20
21568;DHT22;10944;42.590;12.630;2022-07-09T07:41:01;26.90;86.20
21568;DHT22;10944;42.590;12.630;2022-07-09T07:43:26;26.80;86.20
21568;DHT22;10944;42.590;12.630;2022-07-09T07:45:52;26.70;85.20
21568;DHT22;10944;42.590;12.630;2022-07-09T07:48:18;26.40;85.00
21568;DHT22;10944;42.590;12.630;2022-07-09T07:50:44;26.50;87.10
21568;DHT22;10944;42.590;12.630;2022-07-09T07:53:10;26.80;87.20
21568;DHT22;10944;42.590;12.630;2022-07-09T07:55:35;26.90;85.40
21568;DHT22;10944;42.590;12.630;2022-07-09T07:58:01;27.10;85.00
21568;DHT22;10944;42.590;12.630;2022-07-09T08:00:27;27.10;84.10
21568;DHT22;10944;42.590;12.630;2022-07-09T08:02:53;27.20;85.40
21568;DHT22;10944;42.590;12.630;2022-07-09T08:05:19;27.40;83.80
21568;DHT22;10944;42.590;12.630;2022-07-09T08:07:45;27.50;83.20
21568;DHT22;10944;42.590;12.630;2022-07-09T08:10:10;27.60;84.00
21568;DHT22;10944;42.590;12.630;2022-07-09T08:12:36;27.40;80.50
21568;DHT22;10944;42.590;12.630;2022-07-09T08:15:02;27.40;81.20
21568;DHT22;10944;42.590;12.630;2022-07-09T08:17:28;27.30;82.30
21568;DHT22;10944;42.590;12.630;2022-07-09T08:19:53;27.40;81.30
21568;DHT22;10944;42.590;12.630;2022-07-09T08:22:19;27.30;81.10
21568;DHT22;10944;42.590;12.630;2022-07-09T08:24:45;27.40;80.50
21568;DHT22;10944;42.590;12.630;2022-07-09T08:27:11;27.60;81.30
21568;DHT22;10944;42.590;12.630;2022-07-09T08:29:36;27.40;80.10
21568;DHT22;10944;42.590;12.630;2022-07-09T08:32:03;27.10;79.20
21568;DHT22;10944;42.590;12.630;2022-07-09T08:34:30;27.10;80.20
21568;DHT22;10944;42.590;12.630;2022-07-09T08:36:56;27.20;77.50
21568;DHT22;10944;42.590;12.630;2022-07-09T08:39:21;27.20;78.60
21568;DHT22;10944;42.590;12.630;2022-07-09T08:41:47;27.30;78.80
21568;DHT22;10944;42.590;12.630;2022-07-09T08:44:13;27.50;77.50
21568;DHT22;10944;42.590;12.630;2022-07-09T08:46:40;27.50;77.70
21568;DHT22;10944;42.590;12.630;2022-07-09T08:49:07;27.40;76.00
21568;DHT22;10944;42.590;12.630;2022-07-09T08:51:35;27.30;75.90
21568;DHT22;10944;42.590;12.630;2022-07-09T08:54:01;27.40;74.90
21568;DHT22;10944;42.590;12.630;2022-07-09T08:56:27;27.50;76.10
21568;DHT22;10944;42.590;12.630;2022-07-09T08:58:53;27.60;75.70
21568;DHT22;10944;42.590;12.630;2022-07-09T09:01:19;27.70;73.90
21568;DHT22;10944;42.590;12.630;2022-07-09T09:03:45;27.60;75.70
21568;DHT22;10944;42.590;12.630;2022-07-09T09:06:12;27.50;75.00
21568;DHT22;10944;42.590;12.630;2022-07-09T09:08:41;27.30;74.40
21568;DHT22;10944;42.590;12.630;2022-07-09T09:11:12;27.20;74.90
21568;DHT22;10944;42.590;12.630;2022-07-09T09:13:43;27.80;75.90
21568;DHT22;10944;42.590;12.630;2022-07-09T09:16:11;27.70;74.20
21568;DHT22;10944;42.590;12.630;2022-07-09T09:18:43;27.80;75.90
21568;DHT22;10944;42.590;12.630;2022-07-09T09:21:10;28.20;74.60
21568;DHT22;10944;42.590;12.630;2022-07-09T09:26:23;28.20;74.10
21568;DHT22;10944;42.590;12.630;2022-07-09T09:28:59;28.20;74.40
21568;DHT22;10944;42.590;12.630;2022-07-09T09:31:29;28.20;74.60
21568;DHT22;10944;42.590;12.630;2022-07-09T09:34:15;28.20;75.10
21568;DHT22;10944;42.590;12.630;2022-07-09T09:36:45;28.10;75.50
21568;DHT22;10944;42.590;12.630;2022-07-09T09:39:25;28.20;74.90
21568;DHT22;10944;42.590;12.630;2022-07-09T09:44:28;28.60;76.10
21568;DHT22;10944;42.590;12.630;2022-07-09T09:46:55;28.70;76.50
21568;DHT22;10944;42.590;12.630;2022-07-09T09:49:21;28.60;75.10
21568;DHT22;10944;42.590;12.630;2022-07-09T09:54:20;28.80;75.40
21568;DHT22;10944;42.590;12.630;2022-07-09T09:56:46;28.80;76.30
21568;DHT22;10944;42.590;12.630;2022-07-09T09:59:13;28.70;77.10
21568;DHT22;10944;42.590;12.630;2022-07-09T10:01:40;28.60;75.40
21568;DHT22;10944;42.590;12.630;2022-07-09T10:04:06;28.50;77.70
21568;DHT22;10944;42.590;12.630;2022-07-09T10:06:33;28.80;77.00
21568;DHT22;10944;42.590;12.630;2022-07-09T10:09:02;28.90;76.10
21568;DHT22;10944;42.590;12.630;2022-07-09T10:11:47;28.60;76.90
21568;DHT22;10944;42.590;12.630;2022-07-09T10:16:49;28.40;75.50
21568;DHT22;10944;42.590;12.630;2022-07-09T10:19:26;28.00;75.10
21568;DHT22;10944;42.590;12.630;2022-07-09T10:21:54;28.60;78.00
21568;DHT22;10944;42.590;12.630;2022-07-09T10:24:33;29.00;76.60
21568;DHT22;10944;42.590;12.630;2022-07-09T10:29:32;28.50;74.90
21568;DHT22;10944;42.590;12.630;2022-07-09T10:31:58;28.40;75.50
21568;DHT22;10944;42.590;12.630;2022-07-09T10:37:04;29.30;76.30
21568;DHT22;10944;42.590;12.630;2022-07-09T10:39:33;28.80;74.00
21568;DHT22;10944;42.590;12.630;2022-07-09T10:42:19;28.80;75.00
21568;DHT22;10944;42.590;12.630;2022-07-09T10:44:46;29.20;76.10
21568;DHT22;10944;42.590;12.630;2022-07-09T10:47:13;29.30;74.80
21568;DHT22;10944;42.590;12.630;2022-07-09T10:49:39;29.20;76.50
21568;DHT22;10944;42.590;12.630;2022-07-09T10:52:06;28.90;75.00
21568;DHT22;10944;42.590;12.630;2022-07-09T10:54:32;29.30;75.90
21568;DHT22;10944;42.590;12.630;2022-07-09T10:56:58;29.30;74.50
21568;DHT22;10944;42.590;12.630;2022-07-09T10:59:25;29.20;74.70
21568;DHT22;10944;42.590;12.630;2022-07-09T11:01:51;28.80;73.30
21568;DHT22;10944;42.590;12.630;2022-07-09T11:04:31;28.60;74.90
21568;DHT22;10944;42.590;12.630;2022-07-09T11:06:57;28.50;74.70
21568;DHT22;10944;42.590;12.630;2022-07-09T11:09:26;28.90;76.70
21568;DHT22;10944;42.590;12.630;2022-07-09T11:11:56;29.20;74.70
21568;DHT22;10944;42.590;12.630;2022-07-09T11:14:22;29.00;75.30
21568;DHT22;10944;42.590;12.630;2022-07-09T11:16:56;29.10;74.90
21568;DHT22;10944;42.590;12.630;2022-07-09T11:19:22;29.20;74.80
21568;DHT22;10944;42.590;12.630;2022-07-09T11:21:48;29.20;74.10
21568;DHT22;10944;42.590;12.630;2022-07-09T11:24:17;29.50;74.30
21568;DHT22;10944;42.590;12.630;2022-07-09T11:26:45;29.00;73.50
21568;DHT22;10944;42.590;12.630;2022-07-09T11:29:11;28.90;73.40
21568;DHT22;10944;42.590;12.630;2022-07-09T11:31:37;29.20;73.70
21568;DHT22;10944;42.590;12.630;2022-07-09T11:34:11;29.40;73.80
21568;DHT22;10944;42.590;12.630;2022-07-09T11:36:42;29.30;73.50
21568;DHT22;10944;42.590;12.630;2022-07-09T11:39:09;29.30;72.50
21568;DHT22;10944;42.590;12.630;2022-07-09T11:41:42;29.00;72.80
21568;DHT22;10944;42.590;12.630;2022-07-09T11:44:08;29.20;73.70
21568;DHT22;10944;42.590;12.630;2022-07-09T11:46:34;29.40;73.10
21568;DHT22;10944;42.590;12.630;2022-07-09T11:49:00;29.50;73.30
21568;DHT22;10944;42.590;12.630;2022-07-09T11:51:30;29.20;71.60
21568;DHT22;10944;42.590;12.630;2022-07-09T11:53:56;29.00;72.20
21568;DHT22;10944;42.590;12.630;2022-07-09T11:56:22;29.20;72.50
21568;DHT22;10944;42.590;12.630;2022-07-09T11:58:51;29.50;72.60
21568;DHT22;10944;42.590;12.630;2022-07-09T12:01:18;29.40;70.10
21568;DHT22;10944;42.590;12.630;2022-07-09T12:03:47;29.20;70.80
21568;DHT22;10944;42.590;12.630;2022-07-09T12:06:14;29.10;72.30
21568;DHT22;10944;42.590;12.630;2022-07-09T12:08:39;29.10;71.70
21568;DHT22;10944;42.590;12.630;2022-07-09T12:11:05;29.20;72.50
21568;DHT22;10944;42.590;12.630;2022-07-09T12:13:31;29.30;73.00
21568;DHT22;10944;42.590;12.630;2022-07-09T12:15:57;29.50;72.00
21568;DHT22;10944;42.590;12.630;2022-07-09T12:18:23;29.50;71.10
21568;DHT22;10944;42.590;12.630;2022-07-09T12:20:48;29.60;71.00
21568;DHT22;10944;42.590;12.630;2022-07-09T12:23:14;29.70;72.20
21568;DHT22;10944;42.590;12.630;2022-07-09T12:25:40;29.60;70.70
21568;DHT22;10944;42.590;12.630;2022-07-09T12:28:06;29.40;70.00
21568;DHT22;10944;42.590;12.630;2022-07-09T12:30:32;29.10;70.00
21568;DHT22;10944;42.590;12.630;2022-07-09T12:32:57;29.30;70.50
21568;DHT22;10944;42.590;12.630;2022-07-09T12:35:27;29.20;69.60
21568;DHT22;10944;42.590;12.630;2022-07-09T12:37:53;29.30;70.90
21568;DHT22;10944;42.590;12.630;2022-07-09T12:40:18;29.50;69.90
21568;DHT22;10944;42.590;12.630;2022-07-09T12:42:44;29.10;68.70
21568;DHT22;10944;42.590;12.630;2022-07-09T12:45:10;28.90;69.60
21568;DHT22;10944;42.590;12.630;2022-07-09T12:47:38;28.90;69.20
21568;DHT22;10944;42.590;12.630;2022-07-09T12:50:04;29.20;69.30
21568;DHT22;10944;42.590;12.630;2022-07-09T12:52:31;29.30;69.00
21568;DHT22;10944;42.590;12.630;2022-07-09T12:55:02;29.40;68.50
21568;DHT22;10944;42.590;12.630;2022-07-09T12:57:28;29.30;67.40
21568;DHT22;10944;42.590;12.630;2022-07-09T12:59:53;29.20;68.30
21568;DHT22;10944;42.590;12.630;2022-07-09T13:02:19;29.30;67.40
21568;DHT22;10944;42.590;12.630;2022-07-09T13:04:45;29.30;67.80
21568;DHT22;10944;42.590;12.630;2022-07-09T13:07:11;29.50;68.90
21568;DHT22;10944;42.590;12.630;2022-07-09T13:09:36;29.50;67.70
21568;DHT22;10944;42.590;12.630;2022-07-09T13:12:03;29.20;67.50
21568;DHT22;10944;42.590;12.630;2022-07-09T13:14:29;29.50;68.70
21568;DHT22;10944;42.590;12.630;2022-07-09T13:16:54;29.80;67.70
21568;DHT22;10944;42.590;12.630;2022-07-09T13:19:20;29.60;67.10
21568;DHT22;10944;42.590;12.630;2022-07-09T13:21:46;29.50;67.10
21568;DHT22;10944;42.590;12.630;2022-07-09T13:24:11;29.50;66.70
21568;DHT22;10944;42.590;12.630;2022-07-09T13:26:37;29.40;67.00
21568;DHT22;10944;42.590;12.630;2022-07-09T13:29:03;29.20;66.60
21568;DHT22;10944;42.590;12.630;2022-07-09T13:31:29;29.30;65.30
21568;DHT22;10944;42.590;12.630;2022-07-09T13:33:54;29.30;65.60
21568;DHT22;10944;42.590;12.630;2022-07-09T13:36:20;29.50;65.70
21568;DHT22;10944;42.590;12.630;2022-07-09T13:38:46;29.60;66.30
21568;DHT22;10944;42.590;12.630;2022-07-09T13:41:12;29.30;66.10
21568;DHT22;10944;42.590;12.630;2022-07-09T13:43:37;29.10;66.20
21568;DHT22;10944;42.590;12.630;2022-07-09T13:46:03;29.30;66.70
21568;DHT22;10944;42.590;12.630;2022-07-09T13:48:30;29.50;65.90
21568;DHT22;10944;42.590;12.630;2022-07-09T13:50:56;29.60;65.80
21568;DHT22;10944;42.590;12.630;2022-07-09T13:53:22;29.20;65.40
21568;DHT22;10944;42.590;12.630;2022-07-09T13:55:49;29.40;64.80
21568;DHT22;10944;42.590;12.630;2022-07-09T13:58:15;29.30;65.40
21568;DHT22;10944;42.590;12.630;2022-07-09T14:00:40;29.50;65.70
21568;DHT22;10944;42.590;12.630;2022-07-09T14:03:06;29.50;65.10
21568;DHT22;10944;42.590;12.630;2022-07-09T14:05:32;29.50;63.30
21568;DHT22;10944;42.590;12.630;2022-07-09T14:07:57;29.50;64.00
21568;DHT22;10944;42.590;12.630;2022-07-09T14:10:26;29.40;63.80
21568;DHT22;10944;42.590;12.630;2022-07-09T14:12:52;29.30;63.70
21568;DHT22;10944;42.590;12.630;2022-07-09T14:15:18;29.50;65.00
21568;DHT22;10944;42.590;12.630;2022-07-09T14:17:44;29.30;64.20
21568;DHT22;10944;42.590;12.630;2022-07-09T14:20:10;28.90;64.60
21568;DHT22;10944;42.590;12.630;2022-07-09T14:22:36;29.00;65.20
21568;DHT22;10944;42.590;12.630;2022-07-09T14:25:02;28.90;63.40
21568;DHT22;10944;42.590;12.630;2022-07-09T14:27:28;29.10;65.80
21568;DHT22;10944;42.590;12.630;2022-07-09T14:29:54;29.40;64.80
21568;DHT22;10944;42.590;12.630;2022-07-09T14:32:20;29.40;64.60
21568;DHT22;10944;42.590;12.630;2022-07-09T14:34:46;29.20;65.10
21568;DHT22;10944;42.590;12.630;2022-07-09T14:37:12;29.10;64.70
21568;DHT22;10944;42.590;12.630;2022-07-09T14:39:38;29.30;65.00
21568;DHT22;10944;42.590;12.630;2022-07-09T14:42:04;29.40;64.40
21568;DHT22;10944;42.590;12.630;2022-07-09T14:44:29;29.50;64.20
21568;DHT22;10944;42.590;12.630;2022-07-09T14:46:56;29.40;65.10
21568;DHT22;10944;42.590;12.630;2022-07-09T14:49:25;29.20;63.70
21568;DHT22;10944;42.590;12.630;2022-07-09T14:51:50;29.00;64.40
21568;DHT22;10944;42.590;12.630;2022-07-09T14:54:16;28.60;64.50
21568;DHT22;10944;42.590;12.630;2022-07-09T14:56:43;28.70;64.40
21568;DHT22;10944;42.590;12.630;2022-07-09T14:59:09;28.80;64.40
21568;DHT22;10944;42.590;12.630;2022-07-09T15:01:36;28.60;63.70
21568;DHT22;10944;42.590;12.630;2022-07-09T15:04:02;28.40;64.80
21568;DHT22;10944;42.590;12.630;2022-07-09T15:06:27;28.60;64.10
21568;DHT22;10944;42.590;12.630;2022-07-09T15:08:53;28.60;65.00
21568;DHT22;10944;42.590;12.630;2022-07-09T15:11:19;28.60;64.10
21568;DHT22;10944;42.590;12.630;2022-07-09T15:13:44;28.60;63.00
21568;DHT22;10944;42.590;12.630;2022-07-09T15:16:10;28.60;63.50
21568;DHT22;10944;42.590;12.630;2022-07-09T15:18:36;28.70;65.20
21568;DHT22;10944;42.590;12.630;2022-07-09T15:21:02;28.70;64.80
21568;DHT22;10944;42.590;12.630;2022-07-09T15:23:28;28.70;63.20
21568;DHT22;10944;42.590;12.630;2022-07-09T15:25:53;28.50;64.10